Time;durP1;ratioP1;P1;durP2;ratioP2;P2;SDS_P1;SDS_P2;PMS_P1;PMS_P2;Temp;Humidity;BMP_temperature;BMP_pressure;BME280_temperature;BME280_humidity;BME280_pressure;Samples;Min_cycle;Max_cycle;Signal;HPM_P1;HPM_P2
2023/09/09 00:00:42;;;;;;;6.15;5.30;;;;;;;19.58;86.78;101065.75;4976499;28;20111;-66
2023/09/09 00:03:07;;;;;;;9.70;5.72;;;;;;;19.56;86.68;101064.94;4980893;28;20034;-68
2023/09/09 00:05:36;;;;;;;6.45;5.70;;;;;;;19.55;86.70;101065.88;4972288;28;20053;-65
2023/09/09 00:08:01;;;;;;;9.07;6.03;;;;;;;19.52;86.94;101065.16;4976124;28;20039;-65
2023/09/09 00:10:27;;;;;;;7.13;5.82;;;;;;;19.46;87.42;101065.41;4979437;28;20092;-65
2023/09/09 00:12:52;;;;;;;10.60;6.82;;;;;;;19.46;87.40;101073.25;4976672;28;20077;-64
2023/09/09 00:15:18;;;;;;;8.05;6.90;;;;;;;19.43;87.96;101068.13;4982460;28;20046;-65
2023/09/09 00:17:43;;;;;;;11.13;7.18;;;;;;;19.42;88.00;101072.53;4968095;28;20727;-64
2023/09/09 00:20:11;;;;;;;9.32;7.03;;;;;;;19.37;88.33;101066.63;4979506;28;20034;-65
2023/09/09 00:22:36;;;;;;;10.60;7.20;;;;;;;19.33;88.83;101067.63;4972246;28;20096;-64
2023/09/09 00:25:02;;;;;;;11.32;6.70;;;;;;;19.31;88.82;101072.09;4980159;28;20042;-65
2023/09/09 00:27:28;;;;;;;9.45;6.35;;;;;;;19.28;88.88;101066.97;4981465;28;20096;-65
2023/09/09 00:29:53;;;;;;;9.38;6.60;;;;;;;19.26;88.85;101073.19;4997792;28;20129;-65
2023/09/09 00:32:19;;;;;;;9.25;6.82;;;;;;;19.23;89.25;101073.31;4996966;28;20059;-65
2023/09/09 00:34:44;;;;;;;10.63;6.88;;;;;;;19.19;89.58;101066.47;4993861;28;20046;-64
2023/09/09 00:37:09;;;;;;;9.65;6.45;;;;;;;19.15;89.56;101068.34;4993879;28;20565;-65
2023/09/09 00:39:35;;;;;;;8.50;6.28;;;;;;;19.11;89.89;101064.16;4994829;28;20049;-64
2023/09/09 00:42:00;;;;;;;7.03;6.25;;;;;;;19.07;90.21;101065.19;4994959;28;20112;-64
2023/09/09 00:44:25;;;;;;;9.45;7.35;;;;;;;19.03;90.64;101061.81;4972238;28;20415;-64
2023/09/09 00:46:52;;;;;;;7.90;7.05;;;;;;;19.02;90.64;101059.28;4984030;28;20053;-65
2023/09/09 00:49:17;;;;;;;8.05;6.63;;;;;;;18.98;90.92;101057.69;4980797;28;20112;-65
2023/09/09 00:51:44;;;;;;;9.27;6.80;;;;;;;18.93;91.15;101057.88;4996846;28;20677;-64
2023/09/09 00:54:10;;;;;;;7.75;6.38;;;;;;;18.91;91.50;101054.44;5000379;28;20053;-64
2023/09/09 00:56:36;;;;;;;10.13;6.60;;;;;;;18.88;91.57;101051.06;5001267;28;20046;-65
2023/09/09 00:59:02;;;;;;;11.55;6.85;;;;;;;18.86;91.84;101050.28;4992784;28;20106;-64
2023/09/09 01:01:27;;;;;;;8.32;6.70;;;;;;;18.84;92.08;101049.47;4995221;28;20033;-64
2023/09/09 01:03:53;;;;;;;9.48;6.53;;;;;;;18.82;92.17;101048.69;4987468;28;20053;-64
2023/09/09 01:06:22;;;;;;;9.02;6.82;;;;;;;18.80;92.26;101046.09;4999940;28;20036;-65
2023/09/09 01:08:48;;;;;;;9.95;6.88;;;;;;;18.78;92.41;101053.16;4998449;28;20038;-61
2023/09/09 01:11:13;;;;;;;11.57;7.63;;;;;;;18.74;92.84;101054.19;4998878;28;20038;-60
2023/09/09 01:13:39;;;;;;;9.15;7.32;;;;;;;18.70;93.28;101049.13;4997764;28;20081;-61
2023/09/09 01:16:05;;;;;;;8.15;7.07;;;;;;;18.68;93.08;101049.19;4995482;28;20038;-61
2023/09/09 01:18:33;;;;;;;10.93;7.40;;;;;;;18.69;93.12;101052.66;4972852;28;20053;-61
2023/09/09 01:21:08;;;;;;;10.02;7.18;;;;;;;18.66;93.17;101045.78;4976568;28;20026;-61
2023/09/09 01:23:34;;;;;;;9.93;7.60;;;;;;;18.64;93.30;101044.13;4978120;28;20034;-61
2023/09/09 01:25:59;;;;;;;14.15;8.35;;;;;;;18.61;93.50;101045.06;4981370;28;20053;-61
2023/09/09 01:28:25;;;;;;;10.88;8.05;;;;;;;18.60;93.43;101045.13;4988616;28;20498;-61
2023/09/09 01:30:50;;;;;;;10.98;7.50;;;;;;;18.60;93.48;101043.38;4994370;28;20038;-61
2023/09/09 01:33:16;;;;;;;12.98;7.95;;;;;;;18.59;93.44;101054.75;4994059;28;20033;-61
2023/09/09 01:35:42;;;;;;;9.07;7.72;;;;;;;18.56;93.77;101054.00;4994635;28;20065;-61
2023/09/09 01:38:07;;;;;;;9.73;8.07;;;;;;;18.52;93.71;101054.09;4999346;28;20041;-60
2023/09/09 01:40:33;;;;;;;9.70;7.72;;;;;;;18.50;93.98;101057.69;4996556;28;20129;-60
2023/09/09 01:42:58;;;;;;;9.18;7.70;;;;;;;18.48;94.10;101056.91;4996727;28;20042;-60
2023/09/09 01:45:23;;;;;;;9.07;7.50;;;;;;;18.47;94.19;101055.19;4993169;28;20033;-60
2023/09/09 01:47:49;;;;;;;8.05;6.97;;;;;;;18.43;94.29;101057.06;4987265;28;21531;-60
2023/09/09 01:50:14;;;;;;;8.07;6.50;;;;;;;18.40;94.26;101056.34;4982392;28;20075;-61
2023/09/09 01:52:40;;;;;;;11.55;8.93;;;;;;;18.39;94.80;101054.63;4998587;28;20048;-61
2023/09/09 01:55:05;;;;;;;17.05;8.27;;;;;;;18.41;94.65;101052.78;5000028;28;20073;-61
2023/09/09 01:57:30;;;;;;;9.82;7.72;;;;;;;18.37;94.75;101052.03;4992378;28;20106;-61
2023/09/09 01:59:57;;;;;;;11.68;7.93;;;;;;;18.32;94.94;101050.50;4989879;28;20019;-61
2023/09/09 02:02:22;;;;;;;11.45;7.50;;;;;;;18.28;95.17;101060.25;5003699;28;20065;-61
2023/09/09 02:04:48;;;;;;;9.73;7.32;;;;;;;18.25;95.25;101055.13;4997686;28;20156;-61
2023/09/09 02:07:13;;;;;;;8.13;7.18;;;;;;;18.23;95.34;101054.31;4994902;28;20042;-60
2023/09/09 02:09:38;;;;;;;9.20;7.30;;;;;;;18.19;95.48;101051.88;4999367;28;20052;-60
2023/09/09 02:12:04;;;;;;;9.65;7.75;;;;;;;18.17;95.54;101062.38;5000187;28;20149;-60
2023/09/09 02:14:33;;;;;;;10.85;6.95;;;;;;;18.15;95.76;101058.97;5000745;28;20041;-61
2023/09/09 02:16:58;;;;;;;11.57;7.35;;;;;;;18.13;95.93;101060.78;5007464;28;20045;-61
2023/09/09 02:19:24;;;;;;;9.88;7.05;;;;;;;18.14;96.00;101056.38;5003616;28;20449;-60
2023/09/09 02:21:50;;;;;;;8.38;7.38;;;;;;;18.10;95.99;101065.25;5003219;28;20541;-61
2023/09/09 02:24:15;;;;;;;7.72;6.80;;;;;;;18.08;96.14;101057.44;5003313;28;20037;-60
2023/09/09 02:26:41;;;;;;;12.27;7.85;;;;;;;18.08;96.73;101064.47;4981513;28;20392;-61
2023/09/09 02:29:06;;;;;;;10.65;8.27;;;;;;;18.07;96.69;101047.06;4995398;28;20112;-61
2023/09/09 02:31:31;;;;;;;8.65;7.75;;;;;;;18.07;96.73;101055.75;4995324;28;20070;-61
2023/09/09 02:33:57;;;;;;;13.75;8.07;;;;;;;18.06;96.38;101047.94;4998281;28;20519;-61
2023/09/09 02:36:22;;;;;;;10.77;7.45;;;;;;;18.06;97.23;101061.03;5000393;28;20045;-61
2023/09/09 02:38:48;;;;;;;13.52;8.82;;;;;;;18.06;96.72;101059.28;5002504;28;20132;-61
2023/09/09 02:41:13;;;;;;;9.77;7.88;;;;;;;18.04;96.71;101061.09;4997802;28;20054;-61
2023/09/09 02:43:38;;;;;;;10.25;7.95;;;;;;;18.02;96.93;101059.44;5010791;28;20120;-61
2023/09/09 02:46:04;;;;;;;8.50;7.10;;;;;;;18.00;96.78;101062.09;5002927;28;20038;-61
2023/09/09 02:48:30;;;;;;;13.05;8.55;;;;;;;17.97;96.87;101059.59;4999789;28;20044;-61
2023/09/09 02:50:55;;;;;;;8.00;6.50;;;;;;;17.97;97.13;101059.59;5006990;28;20476;-61
2023/09/09 02:53:21;;;;;;;10.75;8.10;;;;;;;17.95;97.04;101053.56;5000019;28;20129;-61
2023/09/09 02:55:47;;;;;;;7.20;6.07;;;;;;;17.94;96.94;101059.69;4990638;28;20510;-61
2023/09/09 02:58:14;;;;;;;10.50;8.07;;;;;;;17.91;97.21;101057.19;4984807;28;20049;-61
2023/09/09 03:00:42;;;;;;;10.50;7.60;;;;;;;17.89;97.38;101059.00;4998638;28;20041;-60
2023/09/09 03:03:07;;;;;;;10.38;7.00;;;;;;;17.86;97.46;101056.50;5002522;28;20037;-62
2023/09/09 03:05:36;;;;;;;11.52;8.70;;;;;;;17.83;97.78;101049.56;4999995;28;20563;-61
2023/09/09 03:08:04;;;;;;;10.88;8.23;;;;;;;17.81;97.78;101050.53;4984082;28;20635;-61
2023/09/09 03:10:30;;;;;;;10.48;7.88;;;;;;;17.78;98.04;101045.41;4986740;28;20087;-60
2023/09/09 03:12:59;;;;;;;11.70;8.27;;;;;;;17.77;97.89;101044.53;4999937;28;20871;-61
2023/09/09 03:15:24;;;;;;;11.80;9.00;;;;;;;17.75;98.01;101048.13;4992672;28;20041;-61
2023/09/09 03:17:50;;;;;;;11.32;8.35;;;;;;;17.73;97.95;101050.78;4997322;28;20244;-61
2023/09/09 03:20:16;;;;;;;11.52;8.15;;;;;;;17.71;98.04;101049.13;4992882;28;20043;-62
2023/09/09 03:22:41;;;;;;;12.43;7.93;;;;;;;17.69;98.01;101049.16;4997312;28;20038;-61
2023/09/09 03:25:10;;;;;;;10.23;8.05;;;;;;;17.66;97.99;101051.88;4992299;28;20034;-61
2023/09/09 03:27:35;;;;;;;11.10;7.88;;;;;;;17.62;98.21;101050.28;4996244;28;20043;-61
2023/09/09 03:30:01;;;;;;;10.32;7.72;;;;;;;17.61;98.15;101053.78;4999363;28;20076;-61
2023/09/09 03:32:26;;;;;;;11.90;6.95;;;;;;;17.59;98.34;101054.75;4996965;28;20049;-60
2023/09/09 03:34:52;;;;;;;12.70;7.72;;;;;;;17.57;98.56;101057.41;5000104;28;20245;-61
2023/09/09 03:37:18;;;;;;;8.52;7.32;;;;;;;17.54;98.58;101047.06;4987770;28;20496;-60
2023/09/09 03:39:43;;;;;;;9.40;7.50;;;;;;;17.52;98.67;101053.22;4978934;28;20976;-61
2023/09/09 03:42:09;;;;;;;12.57;7.95;;;;;;;17.52;98.98;101050.59;4978893;28;20037;-58
2023/09/09 03:44:34;;;;;;;10.27;8.40;;;;;;;17.51;98.95;101056.75;4977773;28;20399;-58
2023/09/09 03:47:00;;;;;;;12.80;8.38;;;;;;;17.47;99.04;101056.00;4973177;28;20719;-61
2023/09/09 03:49:25;;;;;;;10.93;8.43;;;;;;;17.43;99.14;101063.06;4981712;28;20091;-61
2023/09/09 03:51:51;;;;;;;10.38;7.82;;;;;;;17.39;99.19;101058.00;5000745;28;20601;-60
2023/09/09 03:54:17;;;;;;;10.05;7.85;;;;;;;17.37;99.31;101055.44;5002201;28;20030;-60
2023/09/09 03:56:42;;;;;;;11.70;7.90;;;;;;;17.34;99.91;101062.50;5001227;28;20057;-61
2023/09/09 03:59:07;;;;;;;9.77;7.70;;;;;;;17.32;99.49;101065.19;4998295;28;20041;-61
2023/09/09 04:01:35;;;;;;;12.93;8.27;;;;;;;17.30;99.46;101060.91;4986456;28;20502;-60
2023/09/09 04:04:00;;;;;;;10.85;8.13;;;;;;;17.27;99.62;101059.25;5000764;28;20034;-60
2023/09/09 04:06:27;;;;;;;9.93;8.63;;;;;;;17.28;99.76;101054.84;4999571;28;20426;-60
2023/09/09 04:08:55;;;;;;;12.32;8.35;;;;;;;17.25;99.60;101054.94;4974339;28;20090;-61
2023/09/09 04:11:21;;;;;;;12.43;8.65;;;;;;;17.21;99.67;101055.97;4972036;28;20093;-61
2023/09/09 04:13:46;;;;;;;10.50;8.02;;;;;;;17.21;99.99;101066.41;4972040;28;20812;-60
2023/09/09 04:16:12;;;;;;;13.93;8.85;;;;;;;17.18;100.00;101051.69;4972167;28;20062;-61
2023/09/09 04:18:37;;;;;;;10.93;8.55;;;;;;;17.17;99.90;101056.94;4970630;28;20034;-61
2023/09/09 04:21:02;;;;;;;11.48;8.00;;;;;;;17.15;100.00;101064.00;4980204;28;20038;-60
2023/09/09 04:23:28;;;;;;;11.70;8.30;;;;;;;17.11;100.00;101059.75;4968140;28;20488;-61
2023/09/09 04:25:53;;;;;;;12.88;7.70;;;;;;;17.10;100.00;101055.41;4977810;28;20046;-61
2023/09/09 04:28:18;;;;;;;8.75;7.38;;;;;;;17.08;100.00;101062.44;4980331;28;20570;-61
2023/09/09 04:30:45;;;;;;;12.98;8.73;;;;;;;17.07;100.00;101058.97;4967660;28;20043;-61
2023/09/09 04:33:11;;;;;;;12.82;8.30;;;;;;;17.05;100.00;101057.31;4974466;28;20101;-61
2023/09/09 04:35:38;;;;;;;13.05;8.75;;;;;;;17.04;100.00;101063.47;4993823;28;20132;-61
2023/09/09 04:38:04;;;;;;;12.50;8.90;;;;;;;17.01;100.00;101061.78;4994777;28;20045;-61
2023/09/09 04:40:29;;;;;;;12.55;8.45;;;;;;;16.99;100.00;101063.59;5001898;28;20042;-61
2023/09/09 04:42:54;;;;;;;10.55;8.20;;;;;;;16.96;100.00;101061.06;4991013;28;20046;-61
2023/09/09 04:45:20;;;;;;;11.30;8.85;;;;;;;16.93;100.00;101070.75;4976571;28;20042;-61
2023/09/09 04:47:45;;;;;;;10.63;8.63;;;;;;;16.91;100.00;101072.56;4994677;28;20042;-61
2023/09/09 04:50:13;;;;;;;11.15;7.57;;;;;;;16.90;100.00;101066.47;5000370;28;20065;-61
2023/09/09 04:52:38;;;;;;;12.63;9.35;;;;;;;16.89;100.00;101076.97;4998229;28;20046;-61
2023/09/09 04:55:04;;;;;;;13.48;9.43;;;;;;;16.88;100.00;101064.81;4999543;28;20041;-61
2023/09/09 04:57:29;;;;;;;9.45;8.43;;;;;;;16.89;100.00;101071.75;4998892;28;20103;-61
2023/09/09 04:59:55;;;;;;;12.15;9.27;;;;;;;16.90;100.00;101074.31;5003275;28;20076;-61
2023/09/09 05:02:21;;;;;;;12.57;9.48;;;;;;;16.89;100.00;101075.19;4989996;28;20045;-61
2023/09/09 05:04:46;;;;;;;13.77;8.70;;;;;;;16.86;100.00;101086.59;5002064;28;20064;-60
2023/09/09 05:07:11;;;;;;;10.25;8.93;;;;;;;16.84;100.00;101083.19;5002143;28;20042;-60
2023/09/09 05:09:37;;;;;;;12.77;8.82;;;;;;;16.87;100.00;101087.44;5000251;28;20140;-60
2023/09/09 05:12:02;;;;;;;13.20;9.00;;;;;;;16.86;100.00;101083.97;5002396;28;20112;-60
2023/09/09 05:14:27;;;;;;;21.08;8.93;;;;;;;16.86;100.00;101081.38;4996943;28;20040;-60
2023/09/09 05:16:53;;;;;;;11.70;9.25;;;;;;;16.88;100.00;101081.34;4999037;28;20042;-60
2023/09/09 05:19:18;;;;;;;15.20;9.30;;;;;;;16.88;100.00;101086.56;5002259;28;20038;-60
2023/09/09 05:21:44;;;;;;;12.18;9.43;;;;;;;16.91;100.00;101090.84;4999073;28;20057;-60
2023/09/09 05:24:09;;;;;;;12.68;9.13;;;;;;;16.90;100.00;101082.13;5000197;28;20034;-60
2023/09/09 05:26:34;;;;;;;13.30;9.73;;;;;;;16.92;100.00;101093.38;4999168;28;20042;-60
2023/09/09 05:29:01;;;;;;;13.95;9.85;;;;;;;16.94;100.00;101093.34;4995979;28;20171;-61
2023/09/09 05:31:27;;;;;;;11.75;9.10;;;;;;;16.96;100.00;101092.41;4989913;28;20030;-60
2023/09/09 05:33:52;;;;;;;10.00;8.63;;;;;;;16.99;100.00;101091.44;4994221;28;20092;-60
2023/09/09 05:36:17;;;;;;;14.02;9.65;;;;;;;17.02;100.00;101096.59;5000188;28;20513;-60
2023/09/09 05:38:43;;;;;;;12.15;8.77;;;;;;;17.05;100.00;101099.97;4996347;28;20705;-60
2023/09/09 05:41:08;;;;;;;12.45;8.85;;;;;;;17.09;100.00;101096.38;5005680;28;20038;-60
2023/09/09 05:43:33;;;;;;;16.95;8.90;;;;;;;17.12;100.00;101104.13;4989723;28;20042;-61
2023/09/09 05:46:00;;;;;;;12.45;9.23;;;;;;;17.17;99.63;101102.22;4997657;28;20038;-61
2023/09/09 05:48:25;;;;;;;11.73;9.15;;;;;;;17.21;99.52;101101.25;5002966;28;20072;-61
2023/09/09 05:50:51;;;;;;;10.70;8.18;;;;;;;17.25;99.54;101102.84;5001455;28;21447;-60
2023/09/09 05:53:17;;;;;;;13.15;8.73;;;;;;;17.29;98.97;101101.84;5003234;28;20151;-61
2023/09/09 05:55:43;;;;;;;12.23;9.18;;;;;;;17.34;98.87;101104.31;5008258;28;20121;-61
2023/09/09 05:58:08;;;;;;;12.75;9.50;;;;;;;17.38;98.51;101101.56;5006686;28;20068;-61
2023/09/09 06:00:33;;;;;;;13.85;9.55;;;;;;;17.44;98.62;101108.34;5005973;28;20022;-63
2023/09/09 06:02:59;;;;;;;10.65;8.52;;;;;;;17.51;98.21;101120.34;5008305;28;20041;-61
2023/09/09 06:05:24;;;;;;;9.60;8.35;;;;;;;17.57;97.96;101122.78;4999301;28;20095;-61
2023/09/09 06:07:50;;;;;;;11.63;9.65;;;;;;;17.63;97.76;101117.31;4997595;28;20089;-61
2023/09/09 06:10:15;;;;;;;27.02;9.18;;;;;;;17.70;97.66;101124.06;4991085;28;20038;-61
2023/09/09 06:12:41;;;;;;;12.70;9.32;;;;;;;17.79;97.15;101125.53;4976210;28;20034;-61
2023/09/09 06:15:07;;;;;;;12.20;8.88;;;;;;;17.84;97.06;101123.66;4979390;28;20030;-60
2023/09/09 06:17:32;;;;;;;11.50;8.98;;;;;;;17.91;96.74;101130.41;4978783;28;20034;-61
2023/09/09 06:19:57;;;;;;;11.20;8.57;;;;;;;17.97;96.35;101133.69;4977404;28;20100;-61
2023/09/09 06:22:23;;;;;;;13.40;9.43;;;;;;;18.05;95.48;101130.81;4977084;28;20038;-60
2023/09/09 06:24:48;;;;;;;13.20;8.90;;;;;;;18.12;95.25;101129.69;4982824;28;20153;-60
2023/09/09 06:27:14;;;;;;;13.30;8.70;;;;;;;18.20;95.09;101132.03;4978341;28;20054;-60
2023/09/09 06:29:39;;;;;;;11.32;9.25;;;;;;;18.27;95.10;101138.78;4976330;28;21860;-62
2023/09/09 06:32:06;;;;;;;11.35;9.10;;;;;;;18.35;94.72;101135.00;4974784;28;20357;-60
2023/09/09 06:34:32;;;;;;;11.55;8.20;;;;;;;18.44;94.29;101141.69;4971115;28;20089;-61
2023/09/09 06:36:57;;;;;;;14.48;9.23;;;;;;;18.48;94.17;101136.31;4973189;28;20030;-61
2023/09/09 06:39:23;;;;;;;10.35;8.35;;;;;;;18.57;93.79;101142.13;4977373;28;20034;-61
2023/09/09 06:41:49;;;;;;;11.80;8.95;;;;;;;18.64;93.63;101139.22;4977303;28;20058;-60
2023/09/09 06:44:14;;;;;;;10.52;9.20;;;;;;;18.71;93.79;101143.34;4970941;28;20046;-60
2023/09/09 06:46:40;;;;;;;13.32;9.38;;;;;;;18.78;92.93;101139.59;4971663;28;20468;-61
2023/09/09 06:49:05;;;;;;;10.90;8.43;;;;;;;18.87;92.90;101138.44;4980628;28;20030;-60
2023/09/09 06:51:30;;;;;;;11.68;8.95;;;;;;;18.92;93.14;101149.59;4975416;28;20097;-61
2023/09/09 06:53:56;;;;;;;11.93;9.27;;;;;;;19.00;92.88;101143.16;4976846;28;20034;-61
2023/09/09 06:56:21;;;;;;;13.32;9.65;;;;;;;19.15;91.98;101141.72;4979948;28;20732;-61
2023/09/09 06:58:47;;;;;;;12.20;9.15;;;;;;;19.27;92.00;101157.00;4986340;28;20050;-61
2023/09/09 07:01:12;;;;;;;11.23;9.50;;;;;;;19.32;91.75;101155.06;4980292;28;20058;-61
2023/09/09 07:03:39;;;;;;;13.02;8.52;;;;;;;19.39;91.40;101155.69;4981106;28;20040;-61
2023/09/09 07:06:05;;;;;;;11.70;8.88;;;;;;;19.49;90.76;101147.41;4984710;28;20031;-61
2023/09/09 07:08:30;;;;;;;14.70;10.60;;;;;;;19.60;90.17;101145.22;4997195;28;20052;-61
2023/09/09 07:10:56;;;;;;;16.38;9.93;;;;;;;19.69;89.18;101146.63;4998610;28;20038;-61
2023/09/09 07:13:22;;;;;;;11.80;9.07;;;;;;;19.76;89.12;101145.47;4995963;28;20037;-62
2023/09/09 07:15:54;;;;;;;11.50;9.23;;;;;;;19.87;89.07;101143.28;4997367;28;20601;-62
2023/09/09 07:18:20;;;;;;;10.20;8.45;;;;;;;19.93;87.93;101139.56;4979692;28;20022;-62
2023/09/09 07:20:46;;;;;;;12.57;9.02;;;;;;;19.99;88.64;101148.03;4978459;28;20042;-62
2023/09/09 07:23:14;;;;;;;12.57;9.63;;;;;;;20.10;88.28;101144.97;4972470;28;20492;-62
2023/09/09 07:25:39;;;;;;;11.85;8.02;;;;;;;20.18;88.15;101148.16;4974095;28;20049;-62
2023/09/09 07:28:04;;;;;;;11.25;8.90;;;;;;;20.22;88.04;101147.06;4982692;28;20723;-62
2023/09/09 07:30:32;;;;;;;13.25;9.30;;;;;;;20.30;87.18;101149.41;4995146;28;20041;-62
2023/09/09 07:32:58;;;;;;;10.57;8.57;;;;;;;20.38;86.43;101148.16;4973981;28;20034;-62
2023/09/09 07:35:23;;;;;;;9.90;8.02;;;;;;;20.42;86.79;101149.69;4977078;28;20066;-62
2023/09/09 07:37:50;;;;;;;9.50;8.30;;;;;;;20.46;86.77;101153.91;4971750;28;20038;-63
2023/09/09 07:40:16;;;;;;;13.95;8.88;;;;;;;20.54;86.21;101148.34;4977763;28;20125;-62
2023/09/09 07:42:41;;;;;;;14.90;8.18;;;;;;;20.62;86.02;101146.25;4984749;28;20081;-62
2023/09/09 07:45:07;;;;;;;12.88;8.13;;;;;;;20.70;86.06;101152.91;5000652;28;20038;-62
2023/09/09 07:47:32;;;;;;;10.63;7.95;;;;;;;20.82;84.90;101159.38;5001311;28;20053;-62
2023/09/09 07:49:58;;;;;;;10.93;8.90;;;;;;;20.93;84.70;101151.88;5008061;28;20709;-67
2023/09/09 07:52:23;;;;;;;10.00;8.88;;;;;;;21.08;83.79;101155.56;5001846;28;20507;-67
2023/09/09 07:54:49;;;;;;;10.02;8.50;;;;;;;21.18;83.42;101155.09;4999528;28;20038;-62
2023/09/09 07:57:14;;;;;;;11.70;8.60;;;;;;;21.25;83.11;101155.69;4998708;28;20076;-62
2023/09/09 07:59:40;;;;;;;12.70;8.70;;;;;;;21.37;82.33;101151.63;5002865;28;20046;-62
2023/09/09 08:02:05;;;;;;;9.63;8.25;;;;;;;21.47;82.19;101151.09;5002167;28;20038;-62
2023/09/09 08:04:31;;;;;;;12.07;8.10;;;;;;;21.58;82.08;101161.19;5003630;28;20685;-62
2023/09/09 08:06:56;;;;;;;9.88;7.53;;;;;;;21.63;81.72;101162.66;4997843;28;20031;-60
2023/09/09 08:09:22;;;;;;;12.32;8.65;;;;;;;21.65;82.03;101159.94;4982410;28;20038;-59
2023/09/09 08:11:47;;;;;;;10.00;6.72;;;;;;;21.65;82.26;101168.69;5004030;28;20038;-60
2023/09/09 08:14:13;;;;;;;8.40;6.65;;;;;;;21.64;82.53;101171.41;4995683;28;20068;-60
2023/09/09 08:16:41;;;;;;;9.38;7.15;;;;;;;21.66;82.41;101165.16;4991273;28;20046;-60
2023/09/09 08:19:06;;;;;;;14.93;8.02;;;;;;;21.77;82.30;101165.47;4994919;28;20046;-60
2023/09/09 08:21:32;;;;;;;10.63;8.13;;;;;;;21.84;81.58;101165.19;4993392;28;20080;-65
2023/09/09 08:23:59;;;;;;;12.73;8.27;;;;;;;21.97;80.01;101151.34;4996136;28;20095;-62
2023/09/09 08:26:25;;;;;;;9.80;8.00;;;;;;;22.02;80.62;101165.16;4991506;28;20042;-62
2023/09/09 08:28:50;;;;;;;9.93;7.38;;;;;;;22.08;80.26;101154.31;4982476;28;20107;-62
2023/09/09 08:31:16;;;;;;;9.32;7.22;;;;;;;22.16;80.16;101152.13;4983945;28;20038;-62
2023/09/09 08:33:41;;;;;;;9.82;7.90;;;;;;;22.23;79.70;101157.97;4976833;28;20062;-62
2023/09/09 08:36:06;;;;;;;12.13;7.65;;;;;;;22.39;78.81;101150.16;5000219;28;20044;-62
2023/09/09 08:38:32;;;;;;;9.30;8.00;;;;;;;22.51;78.85;101155.66;5001353;28;20565;-62
2023/09/09 08:41:10;;;;;;;11.75;8.45;;;;;;;22.61;78.96;101145.50;4996011;28;20124;-62
2023/09/09 08:43:45;;;;;;;10.68;7.43;;;;;;;22.74;77.92;101138.66;4983019;28;20076;-62
2023/09/09 08:46:17;;;;;;;9.32;7.20;;;;;;;22.80;77.74;101148.84;4971821;28;20039;-62
2023/09/09 08:48:43;;;;;;;9.80;7.22;;;;;;;22.84;77.83;101148.63;4973490;28;20448;-62
2023/09/09 08:51:14;;;;;;;8.98;7.25;;;;;;;23.08;75.65;101125.38;4977037;28;20038;-62
2023/09/09 08:53:41;;;;;;;9.75;7.85;;;;;;;23.21;75.26;101129.09;4968375;28;20423;-62
2023/09/09 08:56:07;;;;;;;16.23;7.68;;;;;;;23.30;74.63;101128.53;4968509;28;20046;-62
2023/09/09 08:58:33;;;;;;;9.93;7.57;;;;;;;23.38;74.38;101122.88;4978710;28;20037;-62
2023/09/09 09:00:59;;;;;;;12.50;7.93;;;;;;;23.51;74.37;101130.94;4979239;28;20088;-62
2023/09/09 09:03:26;;;;;;;11.15;7.55;;;;;;;23.67;73.64;101123.84;4983217;28;20030;-62
2023/09/09 09:05:54;;;;;;;11.90;8.18;;;;;;;23.80;72.40;101117.81;4985212;28;20034;-62
2023/09/09 09:08:19;;;;;;;9.52;7.60;;;;;;;23.83;72.95;101127.34;4984793;28;20042;-62
2023/09/09 09:10:47;;;;;;;9.25;7.72;;;;;;;23.98;71.61;101124.69;4985373;28;20035;-62
2023/09/09 09:13:13;;;;;;;13.80;8.23;;;;;;;24.09;71.78;101131.13;4990395;28;20479;-62
2023/09/09 09:15:39;;;;;;;9.15;7.22;;;;;;;24.07;72.02;101136.53;4977469;28;20034;-62
2023/09/09 09:18:05;;;;;;;9.95;7.60;;;;;;;24.21;71.95;101130.41;4974974;28;20399;-62
2023/09/09 09:20:33;;;;;;;9.05;7.20;;;;;;;24.29;71.16;101123.72;4991646;28;20038;-62
2023/09/09 09:23:02;;;;;;;7.60;6.80;;;;;;;24.30;71.55;101129.88;4998823;28;20046;-62
2023/09/09 09:25:34;;;;;;;13.48;8.35;;;;;;;24.40;71.15;101128.41;4998578;28;20093;-62
2023/09/09 09:28:01;;;;;;;11.02;7.25;;;;;;;24.50;70.25;101114.53;4990119;28;20383;-60
2023/09/09 09:30:29;;;;;;;10.75;7.32;;;;;;;24.57;69.97;101108.88;4980584;28;20085;-60
2023/09/09 09:32:55;;;;;;;11.55;7.18;;;;;;;24.61;70.04;101118.31;4992171;28;20052;-66
2023/09/09 09:35:23;;;;;;;11.13;7.65;;;;;;;24.74;68.95;101099.00;4996149;28;20180;-67
2023/09/09 09:37:57;;;;;;;12.68;7.93;;;;;;;24.83;68.68;101098.41;4986557;28;20088;-67
2023/09/09 09:40:22;;;;;;;;;;;;;;;24.90;67.14;101091.81;4993396;28;20052;-66
2023/09/09 09:42:48;;;;;;;10.38;7.43;;;;;;;25.05;67.75;101097.94;4999038;28;19928;-66
2023/09/09 09:45:14;;;;;;;9.75;6.70;;;;;;;25.20;65.84;101078.44;4992148;28;20483;-59
2023/09/09 09:47:47;;;;;;;12.43;7.35;;;;;;;25.34;65.07;101070.47;4989978;28;20084;-59
2023/09/09 09:50:28;;;;;;;12.82;7.10;;;;;;;25.39;64.82;101068.38;4987347;28;20041;-60
2023/09/09 09:53:05;;;;;;;9.82;6.70;;;;;;;25.48;65.28;101088.13;4996556;28;20530;-60
2023/09/09 09:55:32;;;;;;;11.50;7.00;;;;;;;25.57;65.09;101087.53;4994674;28;20045;-59
2023/09/09 09:58:05;;;;;;;11.65;7.78;;;;;;;25.68;64.24;101066.47;4987939;28;20046;-60
2023/09/09 10:00:31;;;;;;;14.02;7.72;;;;;;;25.73;64.26;101067.03;4985809;28;20087;-60
2023/09/09 10:03:00;;;;;;;9.95;8.13;;;;;;;25.79;62.90;101047.25;4972475;28;20993;-59
2023/09/09 10:05:26;;;;;;;10.10;7.72;;;;;;;25.82;63.45;101068.22;4971726;28;20050;-59
2023/09/09 10:07:54;;;;;;;9.88;7.25;;;;;;;25.91;63.89;101068.47;4969925;28;20555;-59
2023/09/09 10:10:22;;;;;;;9.88;7.75;;;;;;;26.10;62.85;101062.75;4972325;28;20072;-59
2023/09/09 10:12:57;;;;;;;11.57;7.80;;;;;;;26.13;62.76;101055.47;4975205;28;20121;-59
2023/09/09 10:15:25;;;;;;;12.75;8.00;;;;;;;26.17;62.37;101053.47;4991259;28;20057;-60
2023/09/09 10:17:52;;;;;;;11.20;7.68;;;;;;;26.23;61.98;101050.41;4977434;28;20042;-59
2023/09/09 10:20:18;;;;;;;10.88;7.63;;;;;;;26.39;61.20;101042.25;4978124;28;20520;-59
2023/09/09 10:22:46;;;;;;;12.80;7.07;;;;;;;26.43;61.26;101041.06;4981093;28;20526;-59
2023/09/09 10:25:13;;;;;;;12.25;6.43;;;;;;;26.43;61.82;101054.31;4991706;28;20073;-60
2023/09/09 10:27:40;;;;;;;8.40;7.43;;;;;;;26.56;62.26;101055.16;4991721;28;20031;-58
2023/09/09 10:30:09;;;;;;;11.05;8.10;;;;;;;26.66;60.79;101038.50;4996915;28;20045;-65
2023/09/09 10:32:36;;;;;;;8.82;7.05;;;;;;;26.69;60.73;101035.63;4985584;28;20467;-65
2023/09/09 10:35:05;;;;;;;10.18;7.95;;;;;;;26.90;60.86;101030.63;4983278;28;20156;-65
2023/09/09 10:37:34;;;;;;;12.90;7.43;;;;;;;26.96;59.44;101011.59;4983246;28;20154;-65
2023/09/09 10:40:00;;;;;;;8.15;6.40;;;;;;;27.03;59.94;101026.13;4983832;28;20049;-65
2023/09/09 10:42:26;;;;;;;10.18;6.32;;;;;;;27.14;60.06;101026.19;4980671;28;20035;-66
2023/09/09 10:44:53;;;;;;;9.60;6.85;;;;;;;27.21;59.92;101022.16;4997689;28;20038;-65
2023/09/09 10:47:19;;;;;;;12.35;6.70;;;;;;;27.36;59.10;101016.66;5001527;28;20499;-65
2023/09/09 10:49:44;;;;;;;10.57;6.40;;;;;;;27.38;59.27;101022.69;5003404;28;20044;-66
2023/09/09 10:52:32;;;;;;;11.75;7.57;;;;;;;27.41;59.52;101025.97;4998095;28;20163;-65
2023/09/09 10:55:13;;;;;;;13.20;7.43;;;;;;;27.52;59.46;101025.22;4983309;28;20045;-66
2023/09/09 10:57:39;;;;;;;12.48;6.70;;;;;;;27.57;60.82;101044.31;4978056;28;20030;-65
2023/09/09 11:00:06;;;;;;;10.57;7.32;;;;;;;27.65;59.63;101031.28;5006032;28;20084;-66
2023/09/09 11:02:42;;;;;;;14.70;6.47;;;;;;;27.75;58.21;101006.59;4986985;28;20114;-66
2023/09/09 11:05:12;;;;;;;12.32;7.28;;;;;;;27.84;58.56;101018.34;4982904;28;20082;-66
2023/09/09 11:07:39;;;;;;;12.43;6.57;;;;;;;27.86;57.19;100995.13;4974634;28;20030;-66
2023/09/09 11:10:06;;;;;;;14.48;6.68;;;;;;;27.92;56.83;101004.44;4976682;28;20062;-66
2023/09/09 11:12:32;;;;;;;13.57;6.75;;;;;;;27.97;56.29;100989.84;4978763;28;20088;-65
2023/09/09 11:15:07;;;;;;;11.73;6.78;;;;;;;28.03;56.83;100999.16;4984814;28;20034;-66